Terminal Aerodrome Forecast
Issued by NWS

Home | Current Version | Previous Version | Text Only | Print | Product List | Glossary On
Versions: 1 2 3 4 5 6 7 8 9 10 11 12 13 14 15 16 17 18 19 20 21 22 23 24 25 26 27 28 29 30 31 32 33 34 35 36
000
FTUS43 KDLH 160044
TAFHIB

TAF
KHIB 160044Z 1601/1624 VRB02KT P6SM BKN045 OVC080
     FM160600 09005KT 3SM -SN BKN025
      TEMPO 1607/1610 2SM -SN BR OVC015
     FM161400 11005KT 4SM -SN OVC013
     FM161800 13007KT P6SM OVC012=

USA.gov is the U.S. government's official web portal to all federal, state and local government web resources and services.